sensor_id;sensor_type;location;lat;lon;timestamp;P1;durP1;ratioP1;P2;durP2;ratioP2
29570;SDS011;16814;52.118;11.436;2023-03-30T00:01:08;15.23;;;7.73;;
29570;SDS011;16814;52.118;11.436;2023-03-30T00:03:40;14.30;;;7.63;;
29570;SDS011;16814;52.118;11.436;2023-03-30T00:06:07;13.65;;;7.90;;
29570;SDS011;16814;52.118;11.436;2023-03-30T00:08:36;12.55;;;7.38;;
29570;SDS011;16814;52.118;11.436;2023-03-30T00:11:06;13.80;;;8.20;;
29570;SDS011;16814;52.118;11.436;2023-03-30T00:13:37;14.52;;;8.27;;
29570;SDS011;16814;52.118;11.436;2023-03-30T00:16:04;14.90;;;8.45;;
29570;SDS011;16814;52.118;11.436;2023-03-30T00:18:31;14.35;;;8.55;;
29570;SDS011;16814;52.118;11.436;2023-03-30T00:21:00;13.50;;;8.73;;
29570;SDS011;16814;52.118;11.436;2023-03-30T00:23:29;16.50;;;9.02;;
29570;SDS011;16814;52.118;11.436;2023-03-30T00:25:56;14.43;;;8.57;;
29570;SDS011;16814;52.118;11.436;2023-03-30T00:28:23;12.80;;;8.15;;
29570;SDS011;16814;52.118;11.436;2023-03-30T00:30:50;15.00;;;8.88;;
29570;SDS011;16814;52.118;11.436;2023-03-30T00:33:18;17.52;;;9.18;;
29570;SDS011;16814;52.118;11.436;2023-03-30T00:35:51;14.07;;;9.10;;
29570;SDS011;16814;52.118;11.436;2023-03-30T00:38:18;15.45;;;9.18;;
29570;SDS011;16814;52.118;11.436;2023-03-30T00:40:49;18.47;;;9.53;;
29570;SDS011;16814;52.118;11.436;2023-03-30T00:43:16;16.27;;;8.52;;
29570;SDS011;16814;52.118;11.436;2023-03-30T00:45:41;15.00;;;8.30;;
29570;SDS011;16814;52.118;11.436;2023-03-30T00:48:23;12.80;;;8.45;;
29570;SDS011;16814;52.118;11.436;2023-03-30T00:51:00;16.03;;;9.00;;
29570;SDS011;16814;52.118;11.436;2023-03-30T00:53:39;16.38;;;8.45;;
29570;SDS011;16814;52.118;11.436;2023-03-30T00:56:08;13.85;;;8.30;;
29570;SDS011;16814;52.118;11.436;2023-03-30T00:58:37;13.00;;;8.50;;
29570;SDS011;16814;52.118;11.436;2023-03-30T01:01:07;13.35;;;8.55;;
29570;SDS011;16814;52.118;11.436;2023-03-30T01:03:40;13.63;;;8.90;;
29570;SDS011;16814;52.118;11.436;2023-03-30T01:06:09;13.20;;;8.63;;
29570;SDS011;16814;52.118;11.436;2023-03-30T01:08:37;13.30;;;8.63;;
29570;SDS011;16814;52.118;11.436;2023-03-30T01:11:05;13.63;;;8.57;;
29570;SDS011;16814;52.118;11.436;2023-03-30T01:13:32;14.02;;;8.88;;
29570;SDS011;16814;52.118;11.436;2023-03-30T01:41:44;15.95;;;8.68;;
29570;SDS011;16814;52.118;11.436;2023-03-30T01:47:57;16.58;;;7.68;;
29570;SDS011;16814;52.118;11.436;2023-03-30T01:50:36;9.88;;;6.60;;
29570;SDS011;16814;52.118;11.436;2023-03-30T01:53:22;13.75;;;7.53;;
29570;SDS011;16814;52.118;11.436;2023-03-30T01:56:05;12.20;;;7.65;;
29570;SDS011;16814;52.118;11.436;2023-03-30T02:01:26;11.60;;;7.13;;
29570;SDS011;16814;52.118;11.436;2023-03-30T02:03:57;14.27;;;7.85;;
29570;SDS011;16814;52.118;11.436;2023-03-30T02:06:34;12.45;;;7.55;;
29570;SDS011;16814;52.118;11.436;2023-03-30T02:09:11;15.68;;;7.90;;
29570;SDS011;16814;52.118;11.436;2023-03-30T02:11:49;16.67;;;8.63;;
29570;SDS011;16814;52.118;11.436;2023-03-30T02:14:18;15.40;;;7.63;;
29570;SDS011;16814;52.118;11.436;2023-03-30T02:16:47;11.15;;;7.90;;
29570;SDS011;16814;52.118;11.436;2023-03-30T02:19:17;13.25;;;7.55;;
29570;SDS011;16814;52.118;11.436;2023-03-30T02:21:44;13.07;;;7.40;;
29570;SDS011;16814;52.118;11.436;2023-03-30T02:24:13;14.52;;;7.50;;
29570;SDS011;16814;52.118;11.436;2023-03-30T02:26:50;11.63;;;7.13;;
29570;SDS011;16814;52.118;11.436;2023-03-30T02:29:18;13.45;;;7.15;;
29570;SDS011;16814;52.118;11.436;2023-03-30T02:31:47;10.73;;;6.80;;
29570;SDS011;16814;52.118;11.436;2023-03-30T02:45:52;9.48;;;7.00;;
29570;SDS011;16814;52.118;11.436;2023-03-30T02:48:46;14.68;;;7.45;;
29570;SDS011;16814;52.118;11.436;2023-03-30T02:51:40;11.30;;;6.53;;
29570;SDS011;16814;52.118;11.436;2023-03-30T02:57:08;13.10;;;7.03;;
29570;SDS011;16814;52.118;11.436;2023-03-30T02:59:44;14.00;;;7.07;;
29570;SDS011;16814;52.118;11.436;2023-03-30T03:02:36;11.07;;;6.80;;
29570;SDS011;16814;52.118;11.436;2023-03-30T03:05:05;11.55;;;7.10;;
29570;SDS011;16814;52.118;11.436;2023-03-30T03:07:33;11.55;;;6.90;;
29570;SDS011;16814;52.118;11.436;2023-03-30T03:09:59;13.53;;;7.20;;
29570;SDS011;16814;52.118;11.436;2023-03-30T03:12:26;10.50;;;6.77;;
29570;SDS011;16814;52.118;11.436;2023-03-30T03:14:59;11.63;;;6.53;;
29570;SDS011;16814;52.118;11.436;2023-03-30T03:17:29;8.43;;;6.43;;
29570;SDS011;16814;52.118;11.436;2023-03-30T03:20:02;11.77;;;7.03;;
29570;SDS011;16814;52.118;11.436;2023-03-30T03:22:28;11.98;;;6.80;;
29570;SDS011;16814;52.118;11.436;2023-03-30T03:24:54;12.00;;;7.15;;
29570;SDS011;16814;52.118;11.436;2023-03-30T03:27:20;13.38;;;6.80;;
29570;SDS011;16814;52.118;11.436;2023-03-30T03:29:47;13.73;;;7.40;;
29570;SDS011;16814;52.118;11.436;2023-03-30T03:32:14;13.20;;;7.37;;
29570;SDS011;16814;52.118;11.436;2023-03-30T03:34:41;15.07;;;7.37;;
29570;SDS011;16814;52.118;11.436;2023-03-30T03:37:12;14.27;;;7.53;;
29570;SDS011;16814;52.118;11.436;2023-03-30T03:39:38;15.57;;;7.13;;
29570;SDS011;16814;52.118;11.436;2023-03-30T03:42:05;13.67;;;7.37;;
29570;SDS011;16814;52.118;11.436;2023-03-30T03:44:32;10.88;;;7.20;;
29570;SDS011;16814;52.118;11.436;2023-03-30T03:46:58;13.05;;;6.90;;
29570;SDS011;16814;52.118;11.436;2023-03-30T03:49:23;12.27;;;7.10;;
29570;SDS011;16814;52.118;11.436;2023-03-30T03:51:53;12.18;;;7.60;;
29570;SDS011;16814;52.118;11.436;2023-03-30T03:54:19;10.87;;;7.17;;
29570;SDS011;16814;52.118;11.436;2023-03-30T03:56:44;14.37;;;7.50;;
29570;SDS011;16814;52.118;11.436;2023-03-30T03:59:11;12.70;;;7.43;;
29570;SDS011;16814;52.118;11.436;2023-03-30T04:01:37;14.07;;;7.70;;
29570;SDS011;16814;52.118;11.436;2023-03-30T04:04:02;15.02;;;7.20;;
29570;SDS011;16814;52.118;11.436;2023-03-30T04:06:28;11.60;;;6.37;;
29570;SDS011;16814;52.118;11.436;2023-03-30T04:08:55;12.63;;;6.90;;
29570;SDS011;16814;52.118;11.436;2023-03-30T04:11:20;13.25;;;6.60;;
29570;SDS011;16814;52.118;11.436;2023-03-30T04:13:46;13.98;;;6.90;;
29570;SDS011;16814;52.118;11.436;2023-03-30T04:16:13;13.70;;;6.97;;
29570;SDS011;16814;52.118;11.436;2023-03-30T04:18:40;11.02;;;7.15;;
29570;SDS011;16814;52.118;11.436;2023-03-30T04:21:07;11.67;;;6.40;;
29570;SDS011;16814;52.118;11.436;2023-03-30T04:23:37;14.18;;;7.18;;
29570;SDS011;16814;52.118;11.436;2023-03-30T04:26:04;12.30;;;6.17;;
29570;SDS011;16814;52.118;11.436;2023-03-30T04:28:31;11.40;;;6.65;;
29570;SDS011;16814;52.118;11.436;2023-03-30T04:31:01;13.55;;;6.60;;
29570;SDS011;16814;52.118;11.436;2023-03-30T04:33:31;17.95;;;6.88;;
29570;SDS011;16814;52.118;11.436;2023-03-30T04:36:00;12.00;;;6.72;;
29570;SDS011;16814;52.118;11.436;2023-03-30T04:38:29;11.95;;;6.53;;
29570;SDS011;16814;52.118;11.436;2023-03-30T04:40:55;11.30;;;6.53;;
29570;SDS011;16814;52.118;11.436;2023-03-30T04:43:21;14.70;;;6.50;;
29570;SDS011;16814;52.118;11.436;2023-03-30T04:45:52;12.13;;;5.65;;
29570;SDS011;16814;52.118;11.436;2023-03-30T04:48:20;11.18;;;6.15;;
29570;SDS011;16814;52.118;11.436;2023-03-30T04:50:48;10.98;;;5.50;;
29570;SDS011;16814;52.118;11.436;2023-03-30T04:53:15;9.48;;;5.50;;
29570;SDS011;16814;52.118;11.436;2023-03-30T04:55:46;8.37;;;5.33;;
29570;SDS011;16814;52.118;11.436;2023-03-30T04:58:13;11.18;;;5.18;;
29570;SDS011;16814;52.118;11.436;2023-03-30T05:00:41;9.38;;;5.20;;
29570;SDS011;16814;52.118;11.436;2023-03-30T05:03:07;11.30;;;5.38;;
29570;SDS011;16814;52.118;11.436;2023-03-30T05:05:32;11.17;;;5.10;;
29570;SDS011;16814;52.118;11.436;2023-03-30T05:07:58;11.25;;;5.13;;
29570;SDS011;16814;52.118;11.436;2023-03-30T05:10:24;11.02;;;5.05;;
29570;SDS011;16814;52.118;11.436;2023-03-30T05:12:56;10.57;;;5.28;;
29570;SDS011;16814;52.118;11.436;2023-03-30T05:15:22;9.73;;;4.97;;
29570;SDS011;16814;52.118;11.436;2023-03-30T05:17:48;13.10;;;5.30;;
29570;SDS011;16814;52.118;11.436;2023-03-30T05:20:13;9.23;;;5.47;;
29570;SDS011;16814;52.118;11.436;2023-03-30T05:22:39;9.80;;;5.37;;
29570;SDS011;16814;52.118;11.436;2023-03-30T05:25:05;10.13;;;5.10;;
29570;SDS011;16814;52.118;11.436;2023-03-30T05:27:31;10.82;;;5.20;;
29570;SDS011;16814;52.118;11.436;2023-03-30T05:29:56;9.70;;;5.20;;
29570;SDS011;16814;52.118;11.436;2023-03-30T05:32:22;10.80;;;5.20;;
29570;SDS011;16814;52.118;11.436;2023-03-30T05:34:47;11.70;;;5.07;;
29570;SDS011;16814;52.118;11.436;2023-03-30T05:37:16;11.13;;;5.32;;
29570;SDS011;16814;52.118;11.436;2023-03-30T05:39:41;11.45;;;4.70;;
29570;SDS011;16814;52.118;11.436;2023-03-30T05:42:08;7.50;;;4.47;;
29570;SDS011;16814;52.118;11.436;2023-03-30T05:44:35;12.63;;;4.45;;
29570;SDS011;16814;52.118;11.436;2023-03-30T05:47:02;10.40;;;4.35;;
29570;SDS011;16814;52.118;11.436;2023-03-30T05:49:29;14.07;;;4.53;;
29570;SDS011;16814;52.118;11.436;2023-03-30T05:51:56;9.95;;;4.35;;
29570;SDS011;16814;52.118;11.436;2023-03-30T05:54:23;12.75;;;4.05;;
29570;SDS011;16814;52.118;11.436;2023-03-30T05:56:51;9.48;;;3.65;;
29570;SDS011;16814;52.118;11.436;2023-03-30T05:59:17;9.00;;;3.60;;
29570;SDS011;16814;52.118;11.436;2023-03-30T06:01:43;8.07;;;3.47;;
29570;SDS011;16814;52.118;11.436;2023-03-30T06:04:09;10.18;;;3.80;;
29570;SDS011;16814;52.118;11.436;2023-03-30T06:06:35;7.67;;;3.70;;
29570;SDS011;16814;52.118;11.436;2023-03-30T06:09:02;10.20;;;3.85;;
29570;SDS011;16814;52.118;11.436;2023-03-30T06:11:29;10.90;;;3.80;;
29570;SDS011;16814;52.118;11.436;2023-03-30T06:13:55;7.15;;;3.20;;
29570;SDS011;16814;52.118;11.436;2023-03-30T06:16:21;7.25;;;3.35;;
29570;SDS011;16814;52.118;11.436;2023-03-30T06:18:47;11.32;;;3.30;;
29570;SDS011;16814;52.118;11.436;2023-03-30T06:21:12;9.40;;;3.20;;
29570;SDS011;16814;52.118;11.436;2023-03-30T06:23:38;9.73;;;3.30;;
29570;SDS011;16814;52.118;11.436;2023-03-30T06:26:05;9.00;;;3.10;;
29570;SDS011;16814;52.118;11.436;2023-03-30T06:28:33;7.30;;;3.38;;
29570;SDS011;16814;52.118;11.436;2023-03-30T06:31:00;10.38;;;3.30;;
29570;SDS011;16814;52.118;11.436;2023-03-30T06:33:27;8.97;;;2.97;;
29570;SDS011;16814;52.118;11.436;2023-03-30T06:35:53;10.23;;;3.45;;
29570;SDS011;16814;52.118;11.436;2023-03-30T06:38:20;10.85;;;3.10;;
29570;SDS011;16814;52.118;11.436;2023-03-30T06:40:46;11.20;;;3.70;;
29570;SDS011;16814;52.118;11.436;2023-03-30T06:43:17;9.52;;;3.10;;
29570;SDS011;16814;52.118;11.436;2023-03-30T06:45:50;10.35;;;3.03;;
29570;SDS011;16814;52.118;11.436;2023-03-30T06:48:17;10.65;;;3.00;;
29570;SDS011;16814;52.118;11.436;2023-03-30T06:50:50;8.95;;;2.67;;
29570;SDS011;16814;52.118;11.436;2023-03-30T06:53:17;11.80;;;3.00;;
29570;SDS011;16814;52.118;11.436;2023-03-30T06:55:43;12.55;;;3.40;;
29570;SDS011;16814;52.118;11.436;2023-03-30T06:58:09;9.93;;;2.87;;
29570;SDS011;16814;52.118;11.436;2023-03-30T07:00:34;9.57;;;2.78;;
29570;SDS011;16814;52.118;11.436;2023-03-30T07:03:01;9.33;;;2.97;;
29570;SDS011;16814;52.118;11.436;2023-03-30T07:05:28;8.40;;;2.90;;
29570;SDS011;16814;52.118;11.436;2023-03-30T07:07:54;7.83;;;2.50;;
29570;SDS011;16814;52.118;11.436;2023-03-30T07:10:20;9.43;;;3.42;;
29570;SDS011;16814;52.118;11.436;2023-03-30T07:12:46;11.48;;;3.88;;
29570;SDS011;16814;52.118;11.436;2023-03-30T07:15:13;9.30;;;3.00;;
29570;SDS011;16814;52.118;11.436;2023-03-30T07:17:39;8.70;;;2.83;;
29570;SDS011;16814;52.118;11.436;2023-03-30T07:20:05;13.63;;;3.30;;
29570;SDS011;16814;52.118;11.436;2023-03-30T07:22:32;10.20;;;3.33;;
29570;SDS011;16814;52.118;11.436;2023-03-30T07:24:58;10.10;;;3.20;;
29570;SDS011;16814;52.118;11.436;2023-03-30T07:27:23;12.70;;;3.40;;
29570;SDS011;16814;52.118;11.436;2023-03-30T07:29:49;7.53;;;3.13;;
29570;SDS011;16814;52.118;11.436;2023-03-30T07:32:17;11.13;;;3.22;;
29570;SDS011;16814;52.118;11.436;2023-03-30T07:34:43;8.25;;;2.92;;
29570;SDS011;16814;52.118;11.436;2023-03-30T07:37:10;20.70;;;4.53;;
29570;SDS011;16814;52.118;11.436;2023-03-30T07:39:37;8.48;;;3.08;;
29570;SDS011;16814;52.118;11.436;2023-03-30T07:42:03;13.82;;;3.47;;
29570;SDS011;16814;52.118;11.436;2023-03-30T07:44:29;11.57;;;3.15;;
29570;SDS011;16814;52.118;11.436;2023-03-30T07:46:55;9.97;;;2.90;;
29570;SDS011;16814;52.118;11.436;2023-03-30T07:49:21;12.63;;;3.15;;
29570;SDS011;16814;52.118;11.436;2023-03-30T07:51:47;13.73;;;3.37;;
29570;SDS011;16814;52.118;11.436;2023-03-30T07:54:12;10.82;;;3.25;;
29570;SDS011;16814;52.118;11.436;2023-03-30T07:56:38;12.07;;;3.17;;
29570;SDS011;16814;52.118;11.436;2023-03-30T07:59:06;14.82;;;3.40;;
29570;SDS011;16814;52.118;11.436;2023-03-30T08:01:34;13.27;;;3.40;;
29570;SDS011;16814;52.118;11.436;2023-03-30T08:04:00;14.13;;;4.00;;
29570;SDS011;16814;52.118;11.436;2023-03-30T08:06:28;10.27;;;3.20;;
29570;SDS011;16814;52.118;11.436;2023-03-30T08:08:54;12.02;;;3.65;;
29570;SDS011;16814;52.118;11.436;2023-03-30T08:11:20;11.00;;;3.17;;
29570;SDS011;16814;52.118;11.436;2023-03-30T08:13:46;14.37;;;3.03;;
29570;SDS011;16814;52.118;11.436;2023-03-30T08:16:12;9.43;;;3.38;;
29570;SDS011;16814;52.118;11.436;2023-03-30T08:18:38;11.90;;;3.03;;
29570;SDS011;16814;52.118;11.436;2023-03-30T08:21:05;15.05;;;3.20;;
29570;SDS011;16814;52.118;11.436;2023-03-30T08:23:31;15.73;;;3.37;;
29570;SDS011;16814;52.118;11.436;2023-03-30T08:25:58;11.73;;;3.05;;
29570;SDS011;16814;52.118;11.436;2023-03-30T08:28:25;12.98;;;3.00;;
29570;SDS011;16814;52.118;11.436;2023-03-30T08:30:51;8.20;;;2.80;;
29570;SDS011;16814;52.118;11.436;2023-03-30T08:33:20;13.80;;;3.13;;
29570;SDS011;16814;52.118;11.436;2023-03-30T08:35:49;13.98;;;3.38;;
29570;SDS011;16814;52.118;11.436;2023-03-30T08:38:18;14.48;;;3.13;;
29570;SDS011;16814;52.118;11.436;2023-03-30T08:40:44;12.05;;;3.25;;
29570;SDS011;16814;52.118;11.436;2023-03-30T08:45:59;10.73;;;3.50;;
29570;SDS011;16814;52.118;11.436;2023-03-30T08:48:26;11.77;;;3.53;;
29570;SDS011;16814;52.118;11.436;2023-03-30T08:51:07;15.95;;;3.88;;
29570;SDS011;16814;52.118;11.436;2023-03-30T08:53:41;24.48;;;4.30;;
29570;SDS011;16814;52.118;11.436;2023-03-30T08:56:08;16.85;;;4.07;;
29570;SDS011;16814;52.118;11.436;2023-03-30T09:01:32;29.92;;;4.35;;
29570;SDS011;16814;52.118;11.436;2023-03-30T09:04:21;20.30;;;3.93;;
29570;SDS011;16814;52.118;11.436;2023-03-30T09:06:54;14.77;;;4.60;;
29570;SDS011;16814;52.118;11.436;2023-03-30T09:09:26;17.88;;;3.40;;
29570;SDS011;16814;52.118;11.436;2023-03-30T09:11:56;16.20;;;3.28;;
29570;SDS011;16814;52.118;11.436;2023-03-30T09:14:33;18.80;;;3.88;;
29570;SDS011;16814;52.118;11.436;2023-03-30T09:17:12;15.45;;;3.33;;
29570;SDS011;16814;52.118;11.436;2023-03-30T09:19:49;9.45;;;2.83;;
29570;SDS011;16814;52.118;11.436;2023-03-30T09:22:42;19.13;;;3.38;;
29570;SDS011;16814;52.118;11.436;2023-03-30T09:25:19;18.10;;;3.25;;
29570;SDS011;16814;52.118;11.436;2023-03-30T09:28:02;9.98;;;3.00;;
29570;SDS011;16814;52.118;11.436;2023-03-30T09:30:40;14.43;;;3.40;;
29570;SDS011;16814;52.118;11.436;2023-03-30T09:38:41;13.05;;;3.60;;
29570;SDS011;16814;52.118;11.436;2023-03-30T09:44:12;11.40;;;3.70;;
29570;SDS011;16814;52.118;11.436;2023-03-30T09:46:44;17.77;;;3.75;;
29570;SDS011;16814;52.118;11.436;2023-03-30T09:49:13;11.23;;;3.40;;
29570;SDS011;16814;52.118;11.436;2023-03-30T09:54:45;11.88;;;3.38;;
29570;SDS011;16814;52.118;11.436;2023-03-30T09:57:24;15.38;;;3.55;;
29570;SDS011;16814;52.118;11.436;2023-03-30T09:59:52;9.80;;;3.20;;
29570;SDS011;16814;52.118;11.436;2023-03-30T10:02:20;10.60;;;3.15;;
29570;SDS011;16814;52.118;11.436;2023-03-30T10:07:35;10.73;;;3.13;;
29570;SDS011;16814;52.118;11.436;2023-03-30T10:12:55;17.85;;;3.55;;
29570;SDS011;16814;52.118;11.436;2023-03-30T10:15:26;14.00;;;3.50;;
29570;SDS011;16814;52.118;11.436;2023-03-30T10:18:02;15.65;;;3.25;;
29570;SDS011;16814;52.118;11.436;2023-03-30T10:20:52;12.20;;;3.17;;
29570;SDS011;16814;52.118;11.436;2023-03-30T10:23:24;14.10;;;3.60;;
29570;SDS011;16814;52.118;11.436;2023-03-30T10:25:59;11.63;;;3.27;;
29570;SDS011;16814;52.118;11.436;2023-03-30T10:28:29;12.95;;;3.40;;
29570;SDS011;16814;52.118;11.436;2023-03-30T10:31:06;10.30;;;3.50;;
29570;SDS011;16814;52.118;11.436;2023-03-30T10:33:40;9.95;;;2.90;;
29570;SDS011;16814;52.118;11.436;2023-03-30T10:36:07;12.23;;;3.50;;
29570;SDS011;16814;52.118;11.436;2023-03-30T10:38:36;14.38;;;3.40;;
29570;SDS011;16814;52.118;11.436;2023-03-30T10:41:21;15.05;;;3.58;;
29570;SDS011;16814;52.118;11.436;2023-03-30T10:43:48;7.57;;;3.03;;
29570;SDS011;16814;52.118;11.436;2023-03-30T10:46:18;13.18;;;3.35;;
29570;SDS011;16814;52.118;11.436;2023-03-30T10:54:38;15.05;;;3.78;;
29570;SDS011;16814;52.118;11.436;2023-03-30T10:59:57;15.65;;;3.67;;
29570;SDS011;16814;52.118;11.436;2023-03-30T11:05:30;21.40;;;4.47;;
29570;SDS011;16814;52.118;11.436;2023-03-30T11:08:06;12.23;;;3.30;;
29570;SDS011;16814;52.118;11.436;2023-03-30T11:10:47;13.13;;;3.58;;
29570;SDS011;16814;52.118;11.436;2023-03-30T11:19:13;11.63;;;3.20;;
29570;SDS011;16814;52.118;11.436;2023-03-30T11:21:50;18.50;;;3.30;;
29570;SDS011;16814;52.118;11.436;2023-03-30T11:24:25;12.82;;;3.10;;
29570;SDS011;16814;52.118;11.436;2023-03-30T11:27:00;12.57;;;3.58;;
29570;SDS011;16814;52.118;11.436;2023-03-30T11:38:19;12.45;;;2.60;;
29570;SDS011;16814;52.118;11.436;2023-03-30T11:40:55;13.30;;;2.40;;
29570;SDS011;16814;52.118;11.436;2023-03-30T11:43:22;9.35;;;2.28;;
29570;SDS011;16814;52.118;11.436;2023-03-30T11:57:32;12.07;;;2.60;;
29570;SDS011;16814;52.118;11.436;2023-03-30T12:03:22;13.02;;;2.88;;
29570;SDS011;16814;52.118;11.436;2023-03-30T12:06:16;8.13;;;2.20;;
29570;SDS011;16814;52.118;11.436;2023-03-30T12:17:42;11.57;;;3.22;;
29570;SDS011;16814;52.118;11.436;2023-03-30T12:20:42;11.40;;;2.85;;
29570;SDS011;16814;52.118;11.436;2023-03-30T12:23:35;11.80;;;2.65;;
29570;SDS011;16814;52.118;11.436;2023-03-30T12:26:22;14.13;;;3.40;;
29570;SDS011;16814;52.118;11.436;2023-03-30T12:34:17;8.55;;;2.70;;
29570;SDS011;16814;52.118;11.436;2023-03-30T12:39:30;13.23;;;3.50;;
29570;SDS011;16814;52.118;11.436;2023-03-30T12:42:02;9.45;;;2.67;;
29570;SDS011;16814;52.118;11.436;2023-03-30T12:44:34;10.83;;;2.97;;
29570;SDS011;16814;52.118;11.436;2023-03-30T12:55:43;10.70;;;2.20;;
29570;SDS011;16814;52.118;11.436;2023-03-30T12:58:31;12.40;;;2.30;;
29570;SDS011;16814;52.118;11.436;2023-03-30T13:04:01;5.37;;;2.20;;
29570;SDS011;16814;52.118;11.436;2023-03-30T13:07:01;9.20;;;1.92;;
29570;SDS011;16814;52.118;11.436;2023-03-30T13:09:31;7.00;;;1.85;;
29570;SDS011;16814;52.118;11.436;2023-03-30T13:17:14;5.70;;;2.03;;
29570;SDS011;16814;52.118;11.436;2023-03-30T13:20:33;5.78;;;2.38;;
29570;SDS011;16814;52.118;11.436;2023-03-30T13:22:37;8.50;;;2.20;;
29570;SDS011;16814;52.118;11.436;2023-03-30T13:31:34;6.55;;;2.40;;
29570;SDS011;16814;52.118;11.436;2023-03-30T13:34:30;8.07;;;2.80;;
29570;SDS011;16814;52.118;11.436;2023-03-30T13:37:16;10.27;;;2.30;;
29570;SDS011;16814;52.118;11.436;2023-03-30T13:39:47;8.63;;;2.67;;
29570;SDS011;16814;52.118;11.436;2023-03-30T13:45:57;9.05;;;2.30;;
29570;SDS011;16814;52.118;11.436;2023-03-30T13:51:08;6.13;;;2.03;;
29570;SDS011;16814;52.118;11.436;2023-03-30T13:54:01;8.40;;;2.22;;
29570;SDS011;16814;52.118;11.436;2023-03-30T13:56:31;4.93;;;1.88;;
29570;SDS011;16814;52.118;11.436;2023-03-30T14:01:47;4.63;;;1.80;;
29570;SDS011;16814;52.118;11.436;2023-03-30T14:04:18;7.50;;;2.08;;
29570;SDS011;16814;52.118;11.436;2023-03-30T14:06:46;8.70;;;2.45;;
29570;SDS011;16814;52.118;11.436;2023-03-30T14:09:21;6.15;;;1.90;;
29570;SDS011;16814;52.118;11.436;2023-03-30T14:11:52;5.63;;;2.10;;
29570;SDS011;16814;52.118;11.436;2023-03-30T14:17:03;7.43;;;2.40;;
29570;SDS011;16814;52.118;11.436;2023-03-30T14:19:41;7.55;;;2.25;;
29570;SDS011;16814;52.118;11.436;2023-03-30T14:22:31;6.28;;;2.30;;
29570;SDS011;16814;52.118;11.436;2023-03-30T14:25:09;8.52;;;2.75;;
29570;SDS011;16814;52.118;11.436;2023-03-30T14:28:01;7.75;;;2.70;;
29570;SDS011;16814;52.118;11.436;2023-03-30T14:30:35;9.13;;;2.83;;
29570;SDS011;16814;52.118;11.436;2023-03-30T14:33:04;4.30;;;2.20;;
29570;SDS011;16814;52.118;11.436;2023-03-30T14:35:33;4.77;;;2.30;;
29570;SDS011;16814;52.118;11.436;2023-03-30T14:38:05;6.50;;;2.28;;
29570;SDS011;16814;52.118;11.436;2023-03-30T14:40:30;5.43;;;2.45;;
29570;SDS011;16814;52.118;11.436;2023-03-30T14:43:03;7.50;;;2.35;;
29570;SDS011;16814;52.118;11.436;2023-03-30T14:45:28;12.23;;;2.97;;
29570;SDS011;16814;52.118;11.436;2023-03-30T14:47:57;6.43;;;2.60;;
29570;SDS011;16814;52.118;11.436;2023-03-30T14:50:22;10.33;;;2.77;;
29570;SDS011;16814;52.118;11.436;2023-03-30T14:52:48;7.78;;;2.50;;
29570;SDS011;16814;52.118;11.436;2023-03-30T14:55:22;8.73;;;2.70;;
29570;SDS011;16814;52.118;11.436;2023-03-30T14:57:51;6.90;;;2.42;;
29570;SDS011;16814;52.118;11.436;2023-03-30T15:00:18;8.57;;;2.95;;
29570;SDS011;16814;52.118;11.436;2023-03-30T15:02:54;6.55;;;2.42;;
29570;SDS011;16814;52.118;11.436;2023-03-30T15:05:23;7.03;;;2.70;;
29570;SDS011;16814;52.118;11.436;2023-03-30T15:07:56;7.65;;;2.75;;
29570;SDS011;16814;52.118;11.436;2023-03-30T15:10:23;9.33;;;2.40;;
29570;SDS011;16814;52.118;11.436;2023-03-30T15:12:53;10.68;;;2.53;;
29570;SDS011;16814;52.118;11.436;2023-03-30T15:15:23;8.80;;;2.80;;
29570;SDS011;16814;52.118;11.436;2023-03-30T15:17:53;14.25;;;2.53;;
29570;SDS011;16814;52.118;11.436;2023-03-30T15:20:21;13.57;;;2.00;;
29570;SDS011;16814;52.118;11.436;2023-03-30T15:22:50;8.90;;;2.40;;
29570;SDS011;16814;52.118;11.436;2023-03-30T15:25:17;9.88;;;2.58;;
29570;SDS011;16814;52.118;11.436;2023-03-30T15:27:49;11.00;;;2.47;;
29570;SDS011;16814;52.118;11.436;2023-03-30T15:30:30;7.60;;;2.10;;
29570;SDS011;16814;52.118;11.436;2023-03-30T15:33:01;10.43;;;2.50;;
29570;SDS011;16814;52.118;11.436;2023-03-30T15:35:28;9.93;;;2.92;;
29570;SDS011;16814;52.118;11.436;2023-03-30T15:38:12;10.40;;;3.15;;
29570;SDS011;16814;52.118;11.436;2023-03-30T15:40:43;11.70;;;2.42;;
29570;SDS011;16814;52.118;11.436;2023-03-30T15:43:18;8.40;;;2.25;;
29570;SDS011;16814;52.118;11.436;2023-03-30T15:45:50;11.23;;;2.08;;
29570;SDS011;16814;52.118;11.436;2023-03-30T15:48:17;9.17;;;2.40;;
29570;SDS011;16814;52.118;11.436;2023-03-30T15:51:01;10.50;;;2.03;;
29570;SDS011;16814;52.118;11.436;2023-03-30T15:53:51;12.98;;;2.60;;
29570;SDS011;16814;52.118;11.436;2023-03-30T15:56:33;9.85;;;2.15;;
29570;SDS011;16814;52.118;11.436;2023-03-30T15:59:02;8.95;;;2.17;;
29570;SDS011;16814;52.118;11.436;2023-03-30T16:01:40;15.25;;;2.03;;
29570;SDS011;16814;52.118;11.436;2023-03-30T16:04:20;7.00;;;1.80;;
29570;SDS011;16814;52.118;11.436;2023-03-30T16:06:47;7.10;;;1.65;;
29570;SDS011;16814;52.118;11.436;2023-03-30T16:09:13;5.17;;;1.40;;
29570;SDS011;16814;52.118;11.436;2023-03-30T16:11:41;9.48;;;2.00;;
29570;SDS011;16814;52.118;11.436;2023-03-30T16:14:11;7.75;;;1.88;;
29570;SDS011;16814;52.118;11.436;2023-03-30T16:16:40;7.68;;;1.80;;
29570;SDS011;16814;52.118;11.436;2023-03-30T16:19:13;9.63;;;1.93;;
29570;SDS011;16814;52.118;11.436;2023-03-30T16:21:41;9.90;;;2.13;;
29570;SDS011;16814;52.118;11.436;2023-03-30T16:24:21;7.80;;;1.98;;
29570;SDS011;16814;52.118;11.436;2023-03-30T16:26:46;9.02;;;2.15;;
29570;SDS011;16814;52.118;11.436;2023-03-30T16:29:20;9.70;;;2.33;;
29570;SDS011;16814;52.118;11.436;2023-03-30T16:31:48;10.55;;;2.20;;
29570;SDS011;16814;52.118;11.436;2023-03-30T16:34:14;7.75;;;2.33;;
29570;SDS011;16814;52.118;11.436;2023-03-30T16:36:42;11.55;;;2.40;;
29570;SDS011;16814;52.118;11.436;2023-03-30T16:39:18;10.88;;;2.42;;
29570;SDS011;16814;52.118;11.436;2023-03-30T16:41:53;11.57;;;2.10;;
29570;SDS011;16814;52.118;11.436;2023-03-30T16:44:21;8.55;;;2.50;;
29570;SDS011;16814;52.118;11.436;2023-03-30T16:46:48;9.97;;;2.90;;
29570;SDS011;16814;52.118;11.436;2023-03-30T16:51:50;8.80;;;2.60;;
29570;SDS011;16814;52.118;11.436;2023-03-30T16:54:16;8.73;;;2.50;;
29570;SDS011;16814;52.118;11.436;2023-03-30T16:56:42;16.52;;;2.70;;
29570;SDS011;16814;52.118;11.436;2023-03-30T16:59:13;10.17;;;2.63;;
29570;SDS011;16814;52.118;11.436;2023-03-30T17:01:44;9.13;;;2.28;;
29570;SDS011;16814;52.118;11.436;2023-03-30T17:04:11;6.30;;;1.77;;
29570;SDS011;16814;52.118;11.436;2023-03-30T17:06:37;6.45;;;1.33;;
29570;SDS011;16814;52.118;11.436;2023-03-30T17:09:03;7.67;;;1.63;;
29570;SDS011;16814;52.118;11.436;2023-03-30T17:11:29;4.32;;;1.50;;
29570;SDS011;16814;52.118;11.436;2023-03-30T17:13:56;7.30;;;1.35;;
29570;SDS011;16814;52.118;11.436;2023-03-30T17:16:21;4.40;;;1.50;;
29570;SDS011;16814;52.118;11.436;2023-03-30T17:18:52;3.72;;;1.40;;
29570;SDS011;16814;52.118;11.436;2023-03-30T17:21:18;4.35;;;1.42;;
29570;SDS011;16814;52.118;11.436;2023-03-30T17:23:46;3.38;;;1.15;;
29570;SDS011;16814;52.118;11.436;2023-03-30T17:26:14;2.53;;;1.20;;
29570;SDS011;16814;52.118;11.436;2023-03-30T17:28:41;5.53;;;1.23;;
29570;SDS011;16814;52.118;11.436;2023-03-30T17:31:17;6.07;;;1.10;;